Time;durP1;ratioP1;P1;durP2;ratioP2;P2;SDS_P1;SDS_P2;PMS_P1;PMS_P2;Temp;Humidity;BMP_temperature;BMP_pressure;BME280_temperature;BME280_humidity;BME280_pressure;Samples;Min_cycle;Max_cycle;Signal;HPM_P1;HPM_P2
2022/06/19 00:00:45;;;;;;;20.57;6.37;;;23.10;99.90;;;;;;5077394;28;20716;-74
2022/06/19 00:03:20;;;;;;;20.07;4.73;;;23.10;99.90;;;;;;5077540;28;20675;-74
2022/06/19 00:05:51;;;;;;;24.20;5.40;;;23.10;99.90;;;;;;5075772;28;21218;-74
2022/06/19 00:08:18;;;;;;;14.90;5.63;;;23.20;99.90;;;;;;5077029;28;20610;-73
2022/06/19 00:10:44;;;;;;;14.47;5.57;;;23.30;99.90;;;;;;5077117;28;20613;-73
2022/06/19 00:13:11;;;;;;;17.20;4.70;;;23.10;99.90;;;;;;5077267;28;20659;-73
2022/06/19 00:15:37;;;;;;;15.87;5.90;;;23.00;99.90;;;;;;5077240;28;20598;-73
2022/06/19 00:18:04;;;;;;;13.40;5.77;;;23.00;99.90;;;;;;5077327;28;20594;-74
2022/06/19 00:20:30;;;;;;;11.83;5.00;;;22.90;99.90;;;;;;5076960;28;20618;-73
2022/06/19 00:22:56;;;;;;;25.87;5.50;;;22.90;99.90;;;;;;5077294;28;20606;-73
2022/06/19 00:25:23;;;;;;;11.87;5.40;;;23.00;99.90;;;;;;5077248;28;20613;-73
2022/06/19 00:27:49;;;;;;;14.60;5.90;;;23.00;99.90;;;;;;5077179;28;20684;-73
2022/06/19 00:30:16;;;;;;;12.10;5.20;;;23.00;99.90;;;;;;5077248;28;20639;-73
2022/06/19 00:32:42;;;;;;;16.60;5.53;;;23.00;99.90;;;;;;5076679;28;20617;-73
2022/06/19 00:35:10;;;;;;;13.63;5.57;;;23.00;99.90;;;;;;5075335;28;20938;-73
2022/06/19 00:37:36;;;;;;;19.30;5.43;;;22.90;99.90;;;;;;5076419;28;20618;-74
2022/06/19 00:40:07;;;;;;;12.93;5.40;;;22.90;99.90;;;;;;5076502;28;20617;-73
2022/06/19 00:42:33;;;;;;;16.40;4.80;;;22.70;99.90;;;;;;5074979;28;20618;-73
2022/06/19 00:45:02;;;;;;;15.40;5.70;;;22.30;99.90;;;;;;5076417;28;20606;-73
2022/06/19 00:47:34;;;;;;;12.30;6.90;;;21.90;99.90;;;;;;5076486;28;20688;-74
2022/06/19 00:50:26;;;;;;;17.03;5.90;;;21.40;99.90;;;;;;5074640;28;20654;-73
2022/06/19 00:52:52;;;;;;;11.57;5.27;;;21.20;99.90;;;;;;5074884;28;20968;-73
2022/06/19 00:55:26;;;;;;;12.40;4.60;;;21.40;99.90;;;;;;5074752;28;20618;-73
2022/06/19 00:58:00;;;;;;;9.53;5.50;;;21.60;99.90;;;;;;5076326;28;21058;-73
2022/06/19 01:00:29;;;;;;;23.67;4.97;;;21.70;99.90;;;;;;5076281;28;20590;-72
2022/06/19 01:03:09;;;;;;;13.40;5.53;;;21.60;99.90;;;;;;5075779;28;20624;-73
2022/06/19 01:05:36;;;;;;;13.63;5.50;;;21.70;99.90;;;;;;5075764;28;20621;-73
2022/06/19 01:08:04;;;;;;;20.17;5.73;;;21.50;99.90;;;;;;5075834;28;20640;-73
2022/06/19 01:10:36;;;;;;;21.33;6.27;;;21.50;99.90;;;;;;5075593;28;20629;-73
2022/06/19 01:13:03;;;;;;;20.90;6.27;;;21.30;99.90;;;;;;5076068;28;20612;-73
2022/06/19 01:15:30;;;;;;;14.07;5.17;;;21.00;99.90;;;;;;5075939;28;20663;-73
2022/06/19 01:18:01;;;;;;;14.00;5.17;;;20.90;99.90;;;;;;5075951;28;20603;-73
2022/06/19 01:20:29;;;;;;;10.90;5.17;;;20.80;99.90;;;;;;5074179;28;20989;-73
2022/06/19 01:22:58;;;;;;;18.47;6.27;;;20.80;99.90;;;;;;5076170;28;20613;-73
2022/06/19 01:25:34;;;;;;;11.20;5.60;;;20.90;99.90;;;;;;5076765;28;20619;-73
2022/06/19 01:30:53;;;;;;;16.27;5.67;;;20.30;99.90;;;;;;5075134;28;20577;-72
2022/06/19 01:33:36;;;;;;;16.60;5.50;;;20.30;99.90;;;;;;5075311;28;20687;-73
2022/06/19 01:36:05;;;;;;;11.93;5.37;;;20.50;99.90;;;;;;5074936;28;20571;-73
2022/06/19 01:38:33;;;;;;;19.00;6.03;;;20.60;99.90;;;;;;5075092;28;20583;-73
2022/06/19 01:41:04;;;;;;;13.03;5.30;;;20.60;99.90;;;;;;5075521;28;20610;-73
2022/06/19 01:43:31;;;;;;;11.33;6.13;;;20.70;99.90;;;;;;5075023;28;20954;-73
2022/06/19 01:45:57;;;;;;;19.10;6.50;;;20.80;99.90;;;;;;5075203;28;20598;-73
2022/06/19 01:48:29;;;;;;;13.77;5.10;;;20.90;99.90;;;;;;5074718;28;20650;-74
2022/06/19 01:50:57;;;;;;;16.80;5.10;;;20.80;99.90;;;;;;5075051;28;20583;-74
2022/06/19 01:53:29;;;;;;;14.23;5.40;;;20.80;99.90;;;;;;5074971;28;20575;-74
2022/06/19 01:55:57;;;;;;;14.07;5.40;;;20.80;99.90;;;;;;5075188;28;20570;-74
2022/06/19 01:58:28;;;;;;;14.07;6.20;;;20.90;99.90;;;;;;5075031;28;20606;-74
2022/06/19 02:00:55;;;;;;;10.57;4.73;;;21.00;99.90;;;;;;5074937;28;20571;-74
2022/06/19 02:03:38;;;;;;;9.17;4.33;;;21.10;99.90;;;;;;5074650;28;20654;-74
2022/06/19 02:06:07;;;;;;;16.20;4.93;;;21.10;99.90;;;;;;5074722;28;20628;-74
2022/06/19 02:08:35;;;;;;;15.90;5.13;;;21.20;99.90;;;;;;5074946;28;20999;-74
2022/06/19 02:11:04;;;;;;;20.13;6.10;;;21.20;99.90;;;;;;5075053;28;20610;-74
2022/06/19 02:13:34;;;;;;;9.93;5.27;;;21.30;99.90;;;;;;5074607;28;20606;-74
2022/06/19 02:16:07;;;;;;;20.43;5.20;;;21.30;99.90;;;;;;5074821;28;20671;-74
2022/06/19 02:18:39;;;;;;;8.57;4.97;;;21.30;99.90;;;;;;5075290;28;20570;-74
2022/06/19 02:21:08;;;;;;;14.33;6.00;;;21.40;99.90;;;;;;5074460;28;20571;-73
2022/06/19 02:23:37;;;;;;;15.53;5.43;;;21.40;99.90;;;;;;5074721;28;20602;-74
2022/06/19 02:26:06;;;;;;;13.80;5.60;;;21.30;99.90;;;;;;5074411;28;20611;-74
2022/06/19 02:28:37;;;;;;;12.90;5.67;;;21.20;99.90;;;;;;5074471;28;20607;-74
2022/06/19 02:31:06;;;;;;;12.20;5.53;;;21.20;99.90;;;;;;5074380;28;20621;-74
2022/06/19 02:33:40;;;;;;;16.70;5.93;;;21.10;99.90;;;;;;5074226;28;20614;-74
2022/06/19 02:36:36;;;;;;;10.83;5.67;;;21.10;99.90;;;;;;5074795;28;20571;-74
2022/06/19 02:39:24;;;;;;;14.90;5.37;;;21.00;99.90;;;;;;5074039;28;20591;-74
2022/06/19 02:42:27;;;;;;;16.10;5.60;;;20.90;99.90;;;;;;5074122;28;20883;-74
2022/06/19 02:45:01;;;;;;;12.37;5.30;;;20.90;99.90;;;;;;5074334;28;20597;-74
2022/06/19 02:47:31;;;;;;;14.90;6.00;;;20.90;99.90;;;;;;5073190;28;21232;-74
2022/06/19 02:49:58;;;;;;;17.80;5.43;;;20.90;99.90;;;;;;5074004;28;20686;-74
2022/06/19 02:52:24;;;;;;;12.93;5.37;;;21.00;99.90;;;;;;5074015;28;20669;-74
2022/06/19 02:54:51;;;;;;;14.27;5.60;;;20.80;99.90;;;;;;5073357;28;20606;-74
2022/06/19 02:57:18;;;;;;;8.10;5.50;;;20.60;99.90;;;;;;5073610;28;20993;-74
2022/06/19 02:59:45;;;;;;;14.07;5.77;;;20.60;99.90;;;;;;5074023;28;20679;-74
2022/06/19 03:02:13;;;;;;;8.07;5.13;;;20.40;99.90;;;;;;5073565;28;20610;-74
2022/06/19 03:04:47;;;;;;;18.30;6.40;;;20.40;99.90;;;;;;5072535;28;20614;-74
2022/06/19 03:07:13;;;;;;;12.63;5.27;;;20.20;99.90;;;;;;5073507;28;20629;-74
2022/06/19 03:09:39;;;;;;;12.30;5.37;;;20.10;99.90;;;;;;5073881;28;20693;-74
2022/06/19 03:12:07;;;;;;;17.87;5.13;;;20.00;99.90;;;;;;5073963;28;20610;-74
2022/06/19 03:14:33;;;;;;;11.50;5.57;;;19.80;99.90;;;;;;5073926;28;20606;-74
2022/06/19 03:17:00;;;;;;;13.40;5.60;;;19.60;99.90;;;;;;5071533;28;20618;-73
2022/06/19 03:19:26;;;;;;;15.93;5.70;;;19.60;99.90;;;;;;5073565;28;20628;-74
2022/06/19 03:21:54;;;;;;;14.37;5.53;;;19.60;99.90;;;;;;5073570;28;20986;-74
2022/06/19 03:24:21;;;;;;;18.73;6.07;;;19.70;99.90;;;;;;5073562;28;20960;-73
2022/06/19 03:26:47;;;;;;;9.90;5.40;;;19.70;99.90;;;;;;5073371;28;20653;-74
2022/06/19 03:29:13;;;;;;;22.03;6.13;;;19.80;99.90;;;;;;5073273;28;20603;-74
2022/06/19 03:31:40;;;;;;;12.53;6.60;;;19.90;99.90;;;;;;5073388;28;20610;-74
2022/06/19 03:34:06;;;;;;;16.87;5.93;;;19.90;99.90;;;;;;5073707;28;20606;-74
2022/06/19 03:36:33;;;;;;;17.87;5.93;;;20.00;99.90;;;;;;5073866;28;20618;-74
2022/06/19 03:38:59;;;;;;;17.50;5.40;;;20.00;99.90;;;;;;5073454;28;20614;-74
2022/06/19 03:41:26;;;;;;;16.13;5.47;;;20.00;99.90;;;;;;5073212;28;21249;-74
2022/06/19 03:43:52;;;;;;;5.80;4.40;;;20.00;99.90;;;;;;5073531;28;20584;-74
2022/06/19 03:46:20;;;;;;;8.20;4.90;;;19.90;99.90;;;;;;5073167;28;20629;-74
2022/06/19 03:48:49;;;;;;;20.10;6.60;;;19.70;99.90;;;;;;5071345;28;21011;-74
2022/06/19 03:51:16;;;;;;;21.73;5.53;;;19.40;99.90;;;;;;5073237;28;20594;-74
2022/06/19 03:53:45;;;;;;;12.90;6.10;;;19.60;99.90;;;;;;5073148;28;20606;-73
2022/06/19 03:56:17;;;;;;;10.93;5.27;;;19.50;99.90;;;;;;5071857;28;20687;-74
2022/06/19 03:58:47;;;;;;;11.93;6.30;;;19.40;99.90;;;;;;5071924;28;20625;-74
2022/06/19 04:01:22;;;;;;;12.10;5.90;;;19.30;99.90;;;;;;5073418;28;21026;-73
2022/06/19 04:03:50;;;;;;;13.50;5.70;;;19.40;99.90;;;;;;5073333;28;21162;-73
2022/06/19 04:06:19;;;;;;;12.70;5.27;;;19.60;99.90;;;;;;5073234;28;20618;-74
2022/06/19 04:08:46;;;;;;;9.07;5.00;;;19.70;99.90;;;;;;5073132;28;20598;-74
2022/06/19 04:11:17;;;;;;;18.23;6.60;;;19.90;99.90;;;;;;5072761;28;20603;-74
2022/06/19 04:13:44;;;;;;;16.43;5.93;;;20.10;99.90;;;;;;5072974;28;20611;-74
2022/06/19 04:16:22;;;;;;;15.80;5.70;;;20.20;99.90;;;;;;5073009;28;20723;-73
2022/06/19 04:18:50;;;;;;;15.73;5.67;;;20.40;99.90;;;;;;5072795;28;20692;-74
2022/06/19 04:21:20;;;;;;;17.87;5.67;;;20.50;99.90;;;;;;5073145;28;20615;-74
2022/06/19 04:23:46;;;;;;;9.13;5.50;;;20.60;99.90;;;;;;5072862;28;21183;-74
2022/06/19 04:26:15;;;;;;;10.90;4.80;;;20.70;99.90;;;;;;5072947;28;20621;-74
2022/06/19 04:28:42;;;;;;;12.43;5.50;;;20.70;99.90;;;;;;5076082;28;20657;-74
2022/06/19 04:31:09;;;;;;;14.03;5.10;;;20.80;99.90;;;;;;5077317;28;20614;-74
2022/06/19 04:33:38;;;;;;;12.83;5.83;;;20.90;99.90;;;;;;5076941;28;20611;-74
2022/06/19 04:36:09;;;;;;;18.47;6.50;;;21.10;99.90;;;;;;5075407;28;20699;-74
2022/06/19 04:38:40;;;;;;;14.80;6.30;;;21.20;99.90;;;;;;5076284;28;20610;-74
2022/06/19 04:41:15;;;;;;;6.53;4.83;;;21.30;99.90;;;;;;5076023;28;20688;-72
2022/06/19 04:43:42;;;;;;;9.93;5.57;;;21.40;99.90;;;;;;5076596;28;20616;-72
2022/06/19 04:46:09;;;;;;;17.10;5.67;;;21.50;99.90;;;;;;5077293;28;20606;-73
2022/06/19 04:48:37;;;;;;;10.43;5.77;;;21.70;99.90;;;;;;5077786;28;20670;-73
2022/06/19 04:51:04;;;;;;;13.30;4.77;;;21.70;99.90;;;;;;5076307;28;20622;-73
2022/06/19 04:53:32;;;;;;;10.20;5.83;;;21.70;99.90;;;;;;5075904;28;20621;-73
2022/06/19 04:55:59;;;;;;;10.90;5.47;;;21.80;99.90;;;;;;5077430;28;20621;-73
2022/06/19 04:58:26;;;;;;;10.43;5.50;;;21.90;99.90;;;;;;5077187;28;20980;-74
2022/06/19 05:00:54;;;;;;;17.07;6.27;;;21.90;99.90;;;;;;5075270;28;20602;-73
2022/06/19 05:03:21;;;;;;;18.30;5.83;;;21.90;99.90;;;;;;5075627;28;20629;-73
2022/06/19 05:05:48;;;;;;;15.10;5.57;;;22.00;99.90;;;;;;5075620;28;21180;-73
2022/06/19 05:08:15;;;;;;;12.37;5.70;;;22.20;99.90;;;;;;5076287;28;20649;-73
2022/06/19 05:10:42;;;;;;;16.53;5.67;;;22.40;99.90;;;;;;5076013;28;20687;-73
2022/06/19 05:13:19;;;;;;;16.30;5.83;;;22.60;99.90;;;;;;5076143;28;20602;-73
2022/06/19 05:15:47;;;;;;;11.50;5.70;;;22.80;99.90;;;;;;5074199;28;20613;-73
2022/06/19 05:18:15;;;;;;;20.83;6.43;;;22.90;99.90;;;;;;5074757;28;20614;-73
2022/06/19 05:20:42;;;;;;;20.73;6.43;;;23.00;99.90;;;;;;5075864;28;20582;-73
2022/06/19 05:23:09;;;;;;;10.50;6.03;;;23.10;99.90;;;;;;5075521;28;21027;-73
2022/06/19 05:25:36;;;;;;;13.40;5.83;;;23.30;99.90;;;;;;5075479;28;21225;-73
2022/06/19 05:28:03;;;;;;;14.93;5.63;;;23.60;99.90;;;;;;5075523;28;20670;-73
2022/06/19 05:30:30;;;;;;;9.83;5.53;;;23.70;99.90;;;;;;5075624;28;20952;-72
2022/06/19 05:32:56;;;;;;;21.23;6.07;;;23.80;99.90;;;;;;5075464;28;21187;-73
2022/06/19 05:35:23;;;;;;;13.30;6.00;;;23.80;99.90;;;;;;5075708;28;20683;-73
2022/06/19 05:37:50;;;;;;;20.50;6.23;;;24.00;99.90;;;;;;5074977;28;20591;-73
2022/06/19 05:40:16;;;;;;;19.13;6.63;;;24.10;99.90;;;;;;5075045;28;20637;-73
2022/06/19 05:42:43;;;;;;;11.40;5.67;;;24.20;99.90;;;;;;5075269;28;20614;-73
2022/06/19 05:45:10;;;;;;;10.60;5.63;;;24.30;99.90;;;;;;5074870;28;20983;-73
2022/06/19 05:47:37;;;;;;;16.90;7.10;;;24.40;99.90;;;;;;5074677;28;20674;-73
2022/06/19 05:50:03;;;;;;;14.00;6.33;;;24.50;99.90;;;;;;5074813;28;20748;-72
2022/06/19 05:52:30;;;;;;;16.30;6.23;;;24.60;99.90;;;;;;5074869;28;20629;-73
2022/06/19 05:54:56;;;;;;;19.43;6.07;;;24.50;99.90;;;;;;5074893;28;20609;-73
2022/06/19 05:57:23;;;;;;;14.80;6.83;;;24.50;99.90;;;;;;5074816;28;20609;-73
2022/06/19 05:59:50;;;;;;;18.10;7.03;;;24.60;99.90;;;;;;5073601;28;21171;-73
2022/06/19 06:02:21;;;;;;;16.70;5.70;;;24.70;99.90;;;;;;5073583;28;21006;-72
2022/06/19 06:04:48;;;;;;;14.60;6.60;;;24.70;99.90;;;;;;5074526;28;21041;-72
2022/06/19 06:07:15;;;;;;;15.87;6.87;;;24.70;99.90;;;;;;5074638;28;20688;-73
2022/06/19 06:09:41;;;;;;;19.87;7.07;;;24.90;99.90;;;;;;5074953;28;20606;-73
2022/06/19 06:12:08;;;;;;;14.63;5.40;;;25.00;99.90;;;;;;5074921;28;20679;-73
2022/06/19 06:14:34;;;;;;;20.00;7.63;;;25.10;99.90;;;;;;5074942;28;20969;-73
2022/06/19 06:17:01;;;;;;;16.80;7.57;;;25.20;99.90;;;;;;5075210;28;21204;-73
2022/06/19 06:19:28;;;;;;;18.63;5.93;;;25.30;99.90;;;;;;5075235;28;20613;-73
2022/06/19 06:21:54;;;;;;;20.10;7.63;;;25.50;99.90;;;;;;5074661;28;21174;-73
2022/06/19 06:24:21;;;;;;;29.40;7.43;;;25.70;99.90;;;;;;5074658;28;20614;-73
2022/06/19 06:26:47;;;;;;;14.50;6.73;;;25.80;99.90;;;;;;5074077;28;20679;-73
2022/06/19 06:29:16;;;;;;;14.17;7.47;;;26.00;99.90;;;;;;5074369;28;20606;-73
2022/06/19 06:31:42;;;;;;;18.60;6.57;;;26.00;99.90;;;;;;5074551;28;20647;-73
2022/06/19 06:34:08;;;;;;;16.30;6.50;;;26.00;99.90;;;;;;5074227;28;20607;-75
2022/06/19 06:36:35;;;;;;;13.40;5.93;;;26.10;99.90;;;;;;5074280;28;20614;-73
2022/06/19 06:39:01;;;;;;;11.57;6.17;;;26.10;99.90;;;;;;5074227;28;20606;-73
2022/06/19 06:41:28;;;;;;;29.63;7.60;;;26.20;99.90;;;;;;5074506;28;20628;-73
2022/06/19 06:43:54;;;;;;;11.83;6.47;;;26.30;99.90;;;;;;5072923;28;20643;-72
2022/06/19 06:46:24;;;;;;;18.73;7.33;;;26.50;99.90;;;;;;5073900;28;20614;-72
2022/06/19 06:48:57;;;;;;;19.57;6.83;;;26.40;99.90;;;;;;5073162;28;20669;-72
2022/06/19 06:51:26;;;;;;;13.10;6.33;;;26.70;99.90;;;;;;5072702;28;20618;-73
2022/06/19 06:53:54;;;;;;;20.57;6.80;;;26.90;99.90;;;;;;5074543;28;20606;-73
2022/06/19 06:56:20;;;;;;;19.67;7.17;;;27.00;99.90;;;;;;5074222;28;20602;-72
2022/06/19 06:58:47;;;;;;;21.50;7.13;;;27.00;99.90;;;;;;5073572;28;20954;-73
2022/06/19 07:01:21;;;;;;;13.40;6.77;;;27.20;99.90;;;;;;5073803;28;20618;-73
2022/06/19 07:03:54;;;;;;;13.37;6.60;;;27.30;99.90;;;;;;5074064;28;20605;-73
2022/06/19 07:06:25;;;;;;;17.33;6.87;;;27.40;99.90;;;;;;5073112;28;20676;-71
2022/06/19 07:08:52;;;;;;;19.57;8.00;;;27.40;99.90;;;;;;5072483;28;21036;-71
2022/06/19 07:11:22;;;;;;;19.70;7.33;;;27.50;99.90;;;;;;5073819;28;20602;-72
2022/06/19 07:13:49;;;;;;;15.27;7.53;;;27.70;99.90;;;;;;5073167;28;21226;-71
2022/06/19 07:16:16;;;;;;;12.83;7.20;;;27.70;99.90;;;;;;5073544;28;20598;-71
2022/06/19 07:18:43;;;;;;;14.80;6.37;;;27.80;99.90;;;;;;5072357;28;20614;-71
2022/06/19 07:21:11;;;;;;;19.43;7.67;;;28.10;99.90;;;;;;5073282;28;20637;-71
2022/06/19 07:23:38;;;;;;;18.10;7.83;;;28.30;99.90;;;;;;5073589;28;20606;-72
2022/06/19 07:26:09;;;;;;;16.80;8.30;;;28.40;99.90;;;;;;5073348;28;20617;-71
2022/06/19 07:28:36;;;;;;;16.13;7.90;;;28.30;99.90;;;;;;5073642;28;20656;-72
2022/06/19 07:31:02;;;;;;;17.70;7.63;;;28.30;99.90;;;;;;5073097;28;20610;-72
2022/06/19 07:33:29;;;;;;;15.77;7.30;;;28.60;99.90;;;;;;5073105;28;20629;-71
2022/06/19 07:35:55;;;;;;;18.57;8.50;;;28.80;99.90;;;;;;5073276;28;20611;-71
2022/06/19 07:38:22;;;;;;;17.90;8.20;;;28.80;99.90;;;;;;5073507;28;20614;-71
2022/06/19 07:40:48;;;;;;;12.67;6.90;;;29.00;99.90;;;;;;5073621;28;20684;-72
2022/06/19 07:43:14;;;;;;;9.67;7.20;;;29.10;99.90;;;;;;5073232;28;20613;-71
2022/06/19 07:45:41;;;;;;;16.57;7.50;;;29.20;99.90;;;;;;5073161;28;20638;-73
2022/06/19 07:50:56;;;;;;;15.27;7.83;;;29.30;99.90;;;;;;5072952;28;21046;-73
2022/06/19 07:53:22;;;;;;;15.73;7.40;;;29.30;99.90;;;;;;5073322;28;20622;-73
2022/06/19 07:55:48;;;;;;;15.67;7.50;;;29.60;99.90;;;;;;5073032;28;20598;-73
2022/06/19 07:58:15;;;;;;;10.43;6.93;;;29.70;99.90;;;;;;5071515;28;20629;-73
2022/06/19 08:00:42;;;;;;;9.50;7.30;;;29.60;99.90;;;;;;5073044;28;20633;-73
2022/06/19 08:03:08;;;;;;;13.97;7.93;;;29.70;99.90;;;;;;5075756;28;20602;-73
2022/06/19 08:05:37;;;;;;;10.30;8.07;;;29.70;99.90;;;;;;5075610;28;20693;-73
2022/06/19 08:08:09;;;;;;;11.40;7.50;;;29.70;99.90;;;;;;5077667;28;20657;-72
2022/06/19 08:10:39;;;;;;;11.90;7.70;;;29.90;99.90;;;;;;5077487;28;20621;-72
2022/06/19 08:13:06;;;;;;;18.90;8.27;;;30.00;99.90;;;;;;5078096;28;20579;-72
2022/06/19 08:15:34;;;;;;;13.73;7.60;;;30.30;99.90;;;;;;5077643;28;20683;-72
2022/06/19 08:18:01;;;;;;;11.97;6.90;;;30.50;99.90;;;;;;5077875;28;20618;-72
2022/06/19 08:20:28;;;;;;;11.87;8.13;;;30.60;99.90;;;;;;5077530;28;20617;-72
2022/06/19 08:22:55;;;;;;;17.00;8.10;;;30.50;99.90;;;;;;5076679;28;20743;-72
2022/06/19 08:25:23;;;;;;;12.97;7.43;;;30.70;99.90;;;;;;5076504;28;20606;-72
2022/06/19 08:27:51;;;;;;;14.43;7.67;;;30.90;99.90;;;;;;5076491;28;20638;-72
2022/06/19 08:30:22;;;;;;;16.33;9.20;;;30.70;99.90;;;;;;5075129;28;21164;-72
2022/06/19 08:32:49;;;;;;;12.53;7.90;;;30.80;99.90;;;;;;5076442;28;20651;-72
2022/06/19 08:35:16;;;;;;;13.13;8.17;;;31.00;99.90;;;;;;5076689;28;20606;-72
2022/06/19 08:37:45;;;;;;;9.13;8.07;;;30.80;99.90;;;;;;5076164;28;21230;-73
2022/06/19 08:40:21;;;;;;;14.33;8.20;;;30.90;99.90;;;;;;5076691;28;21042;-72
2022/06/19 08:43:26;;;;;;;9.63;8.13;;;31.00;99.90;;;;;;5074795;28;20621;-72
2022/06/19 08:46:07;;;;;;;10.10;7.00;;;30.90;99.90;;;;;;5035245;28;20640;-72
2022/06/19 08:48:49;;;;;;;14.50;7.90;;;31.00;99.90;;;;;;5076153;28;20662;-72
2022/06/19 08:52:07;;;;;;;16.70;8.37;;;31.20;99.90;;;;;;5076020;28;20574;-71
2022/06/19 08:54:52;;;;;;;10.90;7.30;;;31.50;99.90;;;;;;5043212;28;20627;-72
2022/06/19 08:57:37;;;;;;;13.40;8.03;;;31.30;99.90;;;;;;5076472;28;20577;-73
2022/06/19 09:00:26;;;;;;;17.40;8.80;;;31.50;99.90;;;;;;5076309;28;20614;-72
2022/06/19 09:03:23;;;;;;;13.23;7.03;;;31.30;99.90;;;;;;5076369;28;20986;-73
2022/06/19 09:05:53;;;;;;;10.37;7.70;;;31.50;99.90;;;;;;5076147;28;20614;-72
2022/06/19 09:08:42;;;;;;;14.17;8.40;;;31.60;99.90;;;;;;5075847;28;21212;-72
2022/06/19 09:11:32;;;;;;;10.93;7.43;;;31.70;99.90;;;;;;5075874;28;20621;-72
2022/06/19 09:14:27;;;;;;;14.97;8.17;;;31.90;99.90;;;;;;5073360;28;21169;-72
2022/06/19 09:17:07;;;;;;;12.73;6.90;;;31.70;99.90;;;;;;5075524;28;20626;-72
2022/06/19 09:19:50;;;;;;;10.10;6.93;;;31.90;99.90;;;;;;5076230;28;20618;-72
2022/06/19 09:22:34;;;;;;;8.97;7.10;;;31.80;99.90;;;;;;5076037;28;20621;-72
2022/06/19 09:25:13;;;;;;;14.30;8.23;;;31.90;99.90;;;;;;5076434;28;20629;-72
2022/06/19 09:28:08;;;;;;;9.40;7.97;;;31.80;99.90;;;;;;5076144;28;20575;-72
2022/06/19 09:30:55;;;;;;;11.20;7.60;;;31.90;99.90;;;;;;5068524;28;20656;-72
2022/06/19 09:33:34;;;;;;;10.43;7.13;;;32.20;99.90;;;;;;5061993;28;20683;-72
2022/06/19 09:36:07;;;;;;;10.70;7.50;;;32.40;99.90;;;;;;5076689;28;20654;-72
2022/06/19 09:38:42;;;;;;;15.20;7.90;;;32.40;99.90;;;;;;5075211;28;20601;-72
2022/06/19 09:41:17;;;;;;;11.00;7.57;;;32.20;99.90;;;;;;5076289;28;20932;-72
2022/06/19 09:44:18;;;;;;;10.10;7.73;;;32.60;99.90;;;;;;5075755;28;20594;-72
2022/06/19 09:46:56;;;;;;;12.87;7.47;;;32.60;99.90;;;;;;5075399;28;20648;-72
2022/06/19 09:49:33;;;;;;;8.70;7.43;;;32.50;99.90;;;;;;5075648;28;20658;-74
2022/06/19 09:52:05;;;;;;;7.00;6.40;;;32.60;99.90;;;;;;5075746;28;20602;-73
2022/06/19 09:54:37;;;;;;;8.80;6.40;;;32.40;99.90;;;;;;5075192;28;20575;-73
2022/06/19 09:57:17;;;;;;;10.63;6.13;;;32.70;99.90;;;;;;5075260;28;20625;-72
2022/06/19 10:00:02;;;;;;;7.50;6.63;;;32.60;99.90;;;;;;5073714;28;20579;-73
2022/06/19 10:02:42;;;;;;;11.13;7.33;;;32.90;99.90;;;;;;5074978;28;20578;-70
2022/06/19 10:05:23;;;;;;;18.70;7.90;;;32.90;99.90;;;;;;5074774;28;20585;-72
2022/06/19 10:07:55;;;;;;;7.93;7.13;;;32.90;99.90;;;;;;5074728;28;20570;-72
2022/06/19 10:10:42;;;;;;;8.77;6.90;;;32.80;99.90;;;;;;5074879;28;20982;-72
2022/06/19 10:13:20;;;;;;;9.50;6.70;;;33.20;99.90;;;;;;5074885;28;20730;-71
2022/06/19 10:15:49;;;;;;;10.40;7.10;;;32.70;99.90;;;;;;5074545;28;20585;-72
2022/06/19 10:18:44;;;;;;;24.40;7.67;;;32.90;99.90;;;;;;5074591;28;20641;-73
2022/06/19 10:24:47;;;;;;;12.17;7.03;;;33.00;99.90;;;;;;5074570;28;20587;-72
2022/06/19 10:27:55;;;;;;;19.17;7.07;;;33.10;99.90;;;;;;5074496;28;20723;-72
2022/06/19 10:30:30;;;;;;;9.20;7.20;;;33.20;99.90;;;;;;5074107;28;20578;-72
2022/06/19 10:33:15;;;;;;;13.47;7.80;;;33.10;99.90;;;;;;5074050;28;20622;-72
2022/06/19 10:36:04;;;;;;;8.90;6.30;;;33.30;99.90;;;;;;5074098;28;20966;-72
2022/06/19 10:38:44;;;;;;;11.17;7.37;;;33.50;99.90;;;;;;5073553;28;20625;-73
2022/06/19 10:42:01;;;;;;;15.00;7.17;;;33.60;99.90;;;;;;5073516;28;20621;-72
2022/06/19 10:44:45;;;;;;;13.70;7.10;;;33.50;99.90;;;;;;5071466;28;21222;-72
2022/06/19 10:47:31;;;;;;;8.73;6.90;;;33.80;99.90;;;;;;5073555;28;21044;-72
2022/06/19 10:50:27;;;;;;;10.73;7.07;;;33.50;99.90;;;;;;5073509;28;21226;-72
2022/06/19 10:53:23;;;;;;;11.20;7.10;;;33.60;99.90;;;;;;5044989;28;20649;-72
2022/06/19 10:55:55;;;;;;;8.67;6.80;;;33.60;99.90;;;;;;5002257;28;20618;-72
2022/06/19 10:58:25;;;;;;;10.30;7.53;;;33.70;99.90;;;;;;5072604;28;20567;-72
2022/06/19 11:00:54;;;;;;;14.67;8.00;;;33.90;99.90;;;;;;5073536;28;20621;-72
2022/06/19 11:06:30;;;;;;;15.07;7.30;;;34.00;99.90;;;;;;5073368;28;21183;-72
2022/06/19 11:09:04;;;;;;;14.03;7.33;;;34.00;99.90;;;;;;5073600;28;20657;-72
2022/06/19 11:11:34;;;;;;;9.80;7.00;;;33.50;99.90;;;;;;5073473;28;21108;-72
2022/06/19 11:14:09;;;;;;;16.00;7.17;;;33.80;99.90;;;;;;5073948;28;20617;-72
2022/06/19 11:17:05;;;;;;;11.13;6.70;;;33.90;99.90;;;;;;5073619;28;20617;-72
2022/06/19 11:19:35;;;;;;;11.17;6.23;;;33.70;99.90;;;;;;5064420;28;21200;-72
2022/06/19 11:22:04;;;;;;;9.07;6.27;;;33.60;99.90;;;;;;5072002;28;21027;-72
2022/06/19 11:24:34;;;;;;;13.50;6.40;;;34.10;99.90;;;;;;5073195;28;20980;-72
2022/06/19 11:27:02;;;;;;;13.60;6.87;;;34.20;99.90;;;;;;5071763;28;20621;-72
2022/06/19 11:29:30;;;;;;;9.57;6.20;;;34.40;99.90;;;;;;5071644;28;20665;-72
2022/06/19 11:32:11;;;;;;;11.47;6.40;;;34.80;99.90;;;;;;5074364;28;20617;-72
2022/06/19 11:34:47;;;;;;;12.80;6.63;;;35.10;99.90;;;;;;5074323;28;20975;-73
2022/06/19 11:37:16;;;;;;;13.13;6.70;;;35.10;99.90;;;;;;5076824;28;20667;-73
2022/06/19 11:39:46;;;;;;;11.83;6.47;;;34.90;99.90;;;;;;5080969;28;20618;-73
2022/06/19 11:42:33;;;;;;;9.70;6.57;;;34.50;99.90;;;;;;5080987;28;20578;-73
2022/06/19 11:45:15;;;;;;;12.87;7.37;;;35.60;99.90;;;;;;5062019;28;21204;-73
2022/06/19 11:47:54;;;;;;;14.60;6.90;;;35.60;99.90;;;;;;5079879;28;20638;-73
2022/06/19 11:50:32;;;;;;;10.23;6.90;;;35.30;99.90;;;;;;5079719;28;20645;-73
2022/06/19 11:53:05;;;;;;;9.73;6.57;;;35.30;99.90;;;;;;5080005;28;20606;-74
2022/06/19 11:55:36;;;;;;;9.30;6.27;;;35.20;99.90;;;;;;5080588;28;20663;-73
2022/06/19 11:58:12;;;;;;;10.60;7.13;;;35.80;99.90;;;;;;5080287;28;20604;-73
2022/06/19 12:00:40;;;;;;;13.13;6.13;;;34.80;99.90;;;;;;5079712;28;20570;-73
2022/06/19 12:03:22;;;;;;;10.53;7.00;;;35.20;99.90;;;;;;5079962;28;20597;-73
2022/06/19 12:05:59;;;;;;;15.17;7.73;;;35.40;99.90;;;;;;5079814;28;20592;-73
2022/06/19 12:08:31;;;;;;;13.00;6.80;;;35.40;99.90;;;;;;5079998;28;20976;-73
2022/06/19 12:11:04;;;;;;;9.93;6.30;;;35.40;99.90;;;;;;5078347;28;20610;-73
2022/06/19 12:13:37;;;;;;;10.77;6.90;;;35.50;99.90;;;;;;5079231;28;20630;-73
2022/06/19 12:16:10;;;;;;;13.80;6.03;;;36.20;99.90;;;;;;5079555;28;20623;-73
2022/06/19 12:18:37;;;;;;;13.73;7.47;;;36.60;99.90;;;;;;5079689;28;20570;-73
2022/06/19 12:21:28;;;;;;;9.57;7.37;;;36.10;99.90;;;;;;5078650;28;20644;-74
2022/06/19 12:23:58;;;;;;;10.20;6.37;;;37.00;99.90;;;;;;5079572;28;20610;-71
2022/06/19 12:26:38;;;;;;;14.33;6.90;;;35.70;99.90;;;;;;5079873;28;20675;-73
2022/06/19 12:29:17;;;;;;;8.93;6.93;;;35.70;99.90;;;;;;5079391;28;20625;-73
2022/06/19 12:31:44;;;;;;;18.07;7.37;;;37.00;99.90;;;;;;5079726;28;20930;-73
2022/06/19 12:34:34;;;;;;;22.43;7.80;;;36.80;99.90;;;;;;5079558;28;20976;-73
2022/06/19 12:37:00;;;;;;;10.50;6.67;;;36.20;99.90;;;;;;5079301;28;21057;-73
2022/06/19 12:39:31;;;;;;;16.20;7.90;;;36.30;99.90;;;;;;5080038;28;20675;-73
2022/06/19 12:42:35;;;;;;;11.23;7.30;;;36.00;99.90;;;;;;5079434;28;20978;-73
2022/06/19 12:45:32;;;;;;;18.57;7.17;;;36.50;99.90;;;;;;5079238;28;20605;-76
2022/06/19 12:48:23;;;;;;;14.83;7.03;;;36.50;99.90;;;;;;5078550;28;20644;-73
2022/06/19 12:50:59;;;;;;;14.70;6.57;;;37.00;99.90;;;;;;5074714;28;20646;-73
2022/06/19 12:53:43;;;;;;;7.50;6.33;;;36.40;99.90;;;;;;5076308;28;20573;-73
2022/06/19 12:56:38;;;;;;;17.30;7.07;;;36.70;99.90;;;;;;5076346;28;20594;-73
2022/06/19 12:59:37;;;;;;;11.30;7.00;;;36.80;99.90;;;;;;5075548;28;20653;-73
2022/06/19 13:02:21;;;;;;;12.87;6.23;;;37.10;99.90;;;;;;5075588;28;21090;-73
2022/06/19 13:05:45;;;;;;;11.27;6.00;;;36.80;99.90;;;;;;5076141;28;20586;-73
2022/06/19 13:08:40;;;;;;;10.23;6.67;;;37.90;99.90;;;;;;4994256;28;20619;-73
2022/06/19 13:11:28;;;;;;;11.27;6.83;;;37.20;99.90;;;;;;5072876;28;20612;-73
2022/06/19 13:14:45;;;;;;;9.57;6.70;;;36.40;99.90;;;;;;5075630;28;20582;-73
2022/06/19 13:17:27;;;;;;;11.90;6.60;;;37.50;99.90;;;;;;5030886;28;20661;-73
2022/06/19 13:20:12;;;;;;;15.50;7.47;;;38.40;99.90;;;;;;5074079;28;21143;-71